createdAt,value
2023-02-19T00:01:12.569Z,7.76
2023-02-19T00:03:40.432Z,7.87
2023-02-19T00:06:10.238Z,7.89
2023-02-19T00:08:39.630Z,8.13
2023-02-19T00:11:09.590Z,7.81
2023-02-19T00:13:39.345Z,7.94
2023-02-19T00:16:07.682Z,7.93
2023-02-19T00:18:35.215Z,7.88
2023-02-19T00:21:03.064Z,7.89
2023-02-19T00:23:30.906Z,7.81
2023-02-19T00:26:03.282Z,7.76
2023-02-19T00:28:41.376Z,7.97
2023-02-19T00:31:11.067Z,8.10
2023-02-19T00:33:38.694Z,7.88
2023-02-19T00:36:07.231Z,8.01
2023-02-19T00:38:38.029Z,8.01
2023-02-19T00:41:18.928Z,7.76
2023-02-19T00:43:48.909Z,7.97
2023-02-19T00:46:17.096Z,7.78
2023-02-19T00:48:44.650Z,7.59
2023-02-19T00:51:12.577Z,7.49
2023-02-19T00:53:40.334Z,7.75
2023-02-19T00:56:08.648Z,7.59
2023-02-19T00:58:36.328Z,7.81
2023-02-19T01:01:06.517Z,7.83
2023-02-19T01:03:34.025Z,7.69
2023-02-19T01:06:02.497Z,7.65
2023-02-19T01:08:30.891Z,7.82
2023-02-19T01:10:58.528Z,7.82
2023-02-19T01:13:26.014Z,7.60
2023-02-19T01:15:53.819Z,7.82
2023-02-19T01:18:22.687Z,7.71
2023-02-19T01:20:50.143Z,7.65
2023-02-19T01:23:17.821Z,7.83
2023-02-19T01:25:45.262Z,7.44
2023-02-19T01:28:12.790Z,7.56
2023-02-19T01:30:40.740Z,7.44
2023-02-19T01:33:09.833Z,7.71
2023-02-19T01:35:40.667Z,7.37
2023-02-19T01:38:08.593Z,7.71
2023-02-19T01:40:36.553Z,7.73
2023-02-19T01:43:04.752Z,7.59
2023-02-19T01:45:33.308Z,7.42
2023-02-19T01:48:10.098Z,7.28
2023-02-19T01:50:43.904Z,7.67
2023-02-19T01:53:14.680Z,7.41
2023-02-19T01:55:43.321Z,7.35
2023-02-19T01:58:11.388Z,7.30
2023-02-19T02:00:39.315Z,7.45
2023-02-19T02:03:06.966Z,7.29
2023-02-19T02:05:45.193Z,7.35
2023-02-19T02:08:32.019Z,7.50
2023-02-19T02:10:59.720Z,7.30
2023-02-19T02:13:27.838Z,7.24
2023-02-19T02:16:04.015Z,7.55
2023-02-19T02:18:38.834Z,7.33
2023-02-19T02:21:41.746Z,7.37
2023-02-19T02:24:33.437Z,7.40
2023-02-19T02:27:18.595Z,7.36
2023-02-19T02:30:01.915Z,7.26
2023-02-19T02:32:34.246Z,7.30
2023-02-19T02:35:06.740Z,7.35
2023-02-19T02:37:37.959Z,7.66
2023-02-19T02:40:06.572Z,7.47
2023-02-19T02:42:34.350Z,7.29
2023-02-19T02:45:37.219Z,7.36
2023-02-19T02:48:10.998Z,7.41
2023-02-19T02:50:43.658Z,7.43
2023-02-19T02:53:33.632Z,7.49
2023-02-19T02:56:02.932Z,7.39
2023-02-19T02:58:32.300Z,7.44
2023-02-19T03:01:24.057Z,7.61
2023-02-19T03:03:58.739Z,7.43
2023-02-19T03:06:30.174Z,7.48
2023-02-19T03:09:02.955Z,7.56
2023-02-19T03:11:50.885Z,7.48
2023-02-19T03:14:40.755Z,7.36
2023-02-19T03:17:31.918Z,7.46
2023-02-19T03:20:01.973Z,7.46
2023-02-19T03:22:33.956Z,7.37
2023-02-19T03:25:24.021Z,7.35
2023-02-19T03:27:53.199Z,7.25
2023-02-19T03:30:24.912Z,7.50
2023-02-19T03:32:56.891Z,7.41
2023-02-19T03:35:27.146Z,7.34
2023-02-19T03:38:02.201Z,7.33
2023-02-19T03:40:35.498Z,7.33
2023-02-19T03:43:08.266Z,7.35
2023-02-19T03:45:44.931Z,7.31
2023-02-19T03:48:23.768Z,7.43
2023-02-19T03:50:58.717Z,7.40
2023-02-19T03:53:30.943Z,7.32
2023-02-19T03:56:07.491Z,7.45
2023-02-19T03:58:43.660Z,7.35
2023-02-19T04:01:16.597Z,7.34
2023-02-19T04:03:50.341Z,7.37
2023-02-19T04:06:23.649Z,7.30
2023-02-19T04:08:55.556Z,7.39
2023-02-19T04:11:24.556Z,7.28
2023-02-19T04:13:57.503Z,7.32
2023-02-19T04:16:28.320Z,7.33
2023-02-19T04:19:01.670Z,7.38
2023-02-19T04:21:31.394Z,7.34
2023-02-19T04:24:03.487Z,7.38
2023-02-19T04:26:33.645Z,7.38
2023-02-19T04:29:01.170Z,7.36
2023-02-19T04:31:31.467Z,7.36
2023-02-19T04:34:00.317Z,7.41
2023-02-19T04:36:27.837Z,7.31
2023-02-19T04:38:55.267Z,7.31
2023-02-19T04:41:22.734Z,7.33
2023-02-19T04:43:50.228Z,7.35
2023-02-19T04:46:17.874Z,7.36
2023-02-19T04:48:45.399Z,7.33
2023-02-19T04:51:14.260Z,7.36
2023-02-19T04:53:42.669Z,7.32
2023-02-19T04:56:12.338Z,7.34
2023-02-19T04:58:40.110Z,7.33
2023-02-19T05:01:08.398Z,7.46
2023-02-19T05:03:36.190Z,7.38
2023-02-19T05:06:04.947Z,7.42
2023-02-19T05:08:33.672Z,7.40
2023-02-19T05:11:02.229Z,7.41
2023-02-19T05:13:30.027Z,7.46
2023-02-19T05:15:58.915Z,7.40
2023-02-19T05:18:26.790Z,7.44
2023-02-19T05:20:54.341Z,7.43
2023-02-19T05:23:22.371Z,7.46
2023-02-19T05:25:51.219Z,7.45
2023-02-19T05:28:19.324Z,7.50
2023-02-19T05:30:48.159Z,7.50
2023-02-19T05:33:17.139Z,7.50
2023-02-19T05:35:46.663Z,7.49
2023-02-19T05:38:14.585Z,7.46
2023-02-19T05:40:42.499Z,7.48
2023-02-19T05:43:11.942Z,7.50
2023-02-19T05:45:39.518Z,7.51
2023-02-19T05:48:07.858Z,7.48
2023-02-19T05:50:39.726Z,7.48
2023-02-19T05:53:07.719Z,7.50
2023-02-19T05:55:37.088Z,7.57
2023-02-19T05:58:05.135Z,7.49
2023-02-19T06:00:34.933Z,7.39
2023-02-19T06:03:02.680Z,7.39
2023-02-19T06:05:30.317Z,7.40
2023-02-19T06:07:57.769Z,7.31
2023-02-19T06:10:25.225Z,7.39
2023-02-19T06:12:54.341Z,7.38
2023-02-19T06:15:21.990Z,7.25
2023-02-19T06:17:50.871Z,7.24
2023-02-19T06:20:18.613Z,7.37
2023-02-19T06:22:46.124Z,7.22
2023-02-19T06:25:13.650Z,7.22
2023-02-19T06:27:41.190Z,7.28
2023-02-19T06:30:10.011Z,7.26
2023-02-19T06:32:37.594Z,7.31
2023-02-19T06:35:07.131Z,7.30
2023-02-19T06:37:34.652Z,7.28
2023-02-19T06:40:02.183Z,7.31
2023-02-19T06:42:32.776Z,7.32
2023-02-19T06:45:00.345Z,7.32
2023-02-19T06:47:27.897Z,7.34
2023-02-19T06:49:55.477Z,7.35
2023-02-19T06:52:29.955Z,7.37
2023-02-19T06:54:57.503Z,7.40
2023-02-19T06:57:25.072Z,7.37
2023-02-19T06:59:52.552Z,7.34
2023-02-19T07:02:19.986Z,7.41
2023-02-19T07:04:47.877Z,7.43
2023-02-19T07:07:15.431Z,7.43
2023-02-19T07:09:44.218Z,7.46
2023-02-19T07:12:11.762Z,7.51
2023-02-19T07:14:39.320Z,7.53
2023-02-19T07:17:06.751Z,7.53
2023-02-19T07:19:34.285Z,7.50
2023-02-19T07:22:01.794Z,7.55
2023-02-19T07:24:29.402Z,7.51
2023-02-19T07:26:58.203Z,7.52
2023-02-19T07:29:25.543Z,7.56
2023-02-19T07:31:53.139Z,7.56
2023-02-19T07:34:20.865Z,7.55
2023-02-19T07:36:48.353Z,7.57
2023-02-19T07:39:16.519Z,7.62
2023-02-19T07:41:43.994Z,7.64
2023-02-19T07:44:16.341Z,7.72
2023-02-19T07:46:44.014Z,7.76
2023-02-19T07:49:11.575Z,7.79
2023-02-19T07:51:39.802Z,7.76
2023-02-19T07:54:07.714Z,7.76
2023-02-19T07:56:35.279Z,7.75
2023-02-19T07:59:02.772Z,7.83
2023-02-19T08:01:49.241Z,7.80
2023-02-19T08:04:16.967Z,7.83
2023-02-19T08:06:44.767Z,7.82
2023-02-19T08:09:12.682Z,7.91
2023-02-19T08:11:58.002Z,7.94
2023-02-19T08:14:26.767Z,7.98
2023-02-19T08:16:55.598Z,7.97
2023-02-19T08:19:23.544Z,8.03
2023-02-19T08:21:51.477Z,8.09
2023-02-19T08:24:18.968Z,8.09
2023-02-19T08:26:46.573Z,8.11
2023-02-19T08:29:14.107Z,8.10
2023-02-19T08:31:41.662Z,8.08
2023-02-19T08:34:10.687Z,8.09
2023-02-19T08:36:38.873Z,8.11
2023-02-19T08:39:06.542Z,8.09
2023-02-19T08:41:34.066Z,8.13
2023-02-19T08:44:01.682Z,8.11
2023-02-19T08:46:29.136Z,8.10
2023-02-19T08:48:56.600Z,8.27
2023-02-19T08:51:25.434Z,8.25
2023-02-19T08:53:52.935Z,8.18
2023-02-19T08:56:20.523Z,8.16
2023-02-19T08:58:48.046Z,8.15
2023-02-19T09:01:18.329Z,8.17
2023-02-19T09:03:45.999Z,8.08
2023-02-19T09:06:16.946Z,8.09
2023-02-19T09:08:46.114Z,8.18
2023-02-19T09:11:14.091Z,8.20
2023-02-19T09:13:42.202Z,8.34
2023-02-19T09:16:10.146Z,8.28
2023-02-19T09:18:37.873Z,8.24
2023-02-19T09:21:06.908Z,8.23
2023-02-19T09:23:35.249Z,8.22
2023-02-19T09:26:07.484Z,8.24
2023-02-19T09:28:35.788Z,8.21
2023-02-19T09:31:05.174Z,8.22
2023-02-19T09:33:32.982Z,8.22
2023-02-19T09:36:00.650Z,8.28
2023-02-19T09:38:29.245Z,8.43
2023-02-19T09:40:58.218Z,8.42
2023-02-19T09:43:29.857Z,8.35
2023-02-19T09:46:04.018Z,8.37
2023-02-19T09:48:31.864Z,8.31
2023-02-19T09:51:01.603Z,8.27
2023-02-19T09:53:40.023Z,8.24
2023-02-19T09:56:08.202Z,8.28
2023-02-19T09:58:41.919Z,8.20
2023-02-19T10:01:13.389Z,8.20
2023-02-19T10:03:44.780Z,8.24
2023-02-19T10:06:20.299Z,8.25
2023-02-19T10:08:50.641Z,8.24
2023-02-19T10:11:19.523Z,8.23
2023-02-19T10:13:51.725Z,8.32
2023-02-19T10:16:22.448Z,8.35
2023-02-19T10:18:49.913Z,8.34
2023-02-19T10:21:20.862Z,8.45
2023-02-19T10:23:55.835Z,8.37
2023-02-19T10:26:24.599Z,8.38
2023-02-19T10:28:54.037Z,8.38
2023-02-19T10:31:24.167Z,8.38
2023-02-19T10:33:54.345Z,8.36
2023-02-19T10:36:33.381Z,8.37
2023-02-19T10:39:02.196Z,8.34
2023-02-19T10:41:30.524Z,8.36
2023-02-19T10:44:07.021Z,8.38
2023-02-19T10:46:38.258Z,8.37
2023-02-19T10:49:14.754Z,8.37
2023-02-19T10:51:42.742Z,8.43
2023-02-19T10:54:18.859Z,8.39
2023-02-19T10:56:46.521Z,8.35
2023-02-19T10:59:25.773Z,8.36
2023-02-19T11:02:00.852Z,8.37
2023-02-19T11:04:33.902Z,8.35
2023-02-19T11:07:09.477Z,8.34
2023-02-19T11:09:40.372Z,8.33
2023-02-19T11:12:09.659Z,8.38
2023-02-19T11:14:42.213Z,8.25
2023-02-19T11:17:23.748Z,8.18
2023-02-19T11:19:54.271Z,7.96
2023-02-19T11:22:31.556Z,7.90
2023-02-19T11:25:04.869Z,7.93
2023-02-19T11:27:33.182Z,7.88
2023-02-19T11:30:36.254Z,7.90
2023-02-19T11:33:21.739Z,7.93
2023-02-19T11:35:50.193Z,7.82
2023-02-19T11:38:20.153Z,8.06
2023-02-19T11:40:53.328Z,8.03
2023-02-19T11:43:35.786Z,8.09
2023-02-19T11:46:09.930Z,8.13
2023-02-19T11:48:45.923Z,8.20
2023-02-19T11:51:25.186Z,8.10
2023-02-19T11:54:01.282Z,8.09
2023-02-19T11:56:35.026Z,8.11
2023-02-19T11:59:05.816Z,8.15
2023-02-19T12:02:14.986Z,8.10
2023-02-19T12:05:19.091Z,8.18
2023-02-19T12:08:31.822Z,8.19
2023-02-19T12:11:12.030Z,8.24
2023-02-19T12:13:57.275Z,8.28
2023-02-19T12:16:31.667Z,8.33
2023-02-19T12:19:25.683Z,8.31
2023-02-19T12:22:20.101Z,8.24
2023-02-19T12:25:06.289Z,8.17
2023-02-19T12:27:48.295Z,8.15
2023-02-19T12:30:38.952Z,8.23
2023-02-19T12:33:27.464Z,8.34
2023-02-19T12:36:04.936Z,8.45
2023-02-19T12:38:40.955Z,8.54
2023-02-19T12:41:24.144Z,8.55
2023-02-19T12:43:59.576Z,8.57
2023-02-19T12:46:32.551Z,8.56
2023-02-19T12:49:06.338Z,8.60
2023-02-19T12:51:42.508Z,8.68
2023-02-19T12:54:19.052Z,8.78
2023-02-19T12:56:51.124Z,8.81
2023-02-19T12:59:23.693Z,8.94
2023-02-19T13:01:57.184Z,8.98
2023-02-19T13:04:32.411Z,8.85
2023-02-19T13:07:05.807Z,8.69
2023-02-19T13:09:39.077Z,8.61
2023-02-19T13:12:12.143Z,8.54
2023-02-19T13:14:44.344Z,8.52
2023-02-19T13:17:24.670Z,8.34
2023-02-19T13:19:57.758Z,8.11
2023-02-19T13:22:53.036Z,8.02
2023-02-19T13:25:23.209Z,8.05
2023-02-19T13:28:19.879Z,8.24
2023-02-19T13:31:07.119Z,8.39
2023-02-19T13:33:45.412Z,8.54
2023-02-19T13:36:16.968Z,8.73
2023-02-19T13:38:47.745Z,8.59
2023-02-19T13:41:29.264Z,8.68
2023-02-19T13:44:03.286Z,8.48
2023-02-19T13:46:37.398Z,8.48
2023-02-19T13:49:38.399Z,8.46
2023-02-19T13:52:35.298Z,8.40
2023-02-19T13:55:42.160Z,8.32
2023-02-19T13:58:40.668Z,8.32
2023-02-19T14:01:10.093Z,8.26
2023-02-19T14:03:48.420Z,8.24
2023-02-19T14:06:15.960Z,8.05
2023-02-19T14:08:48.464Z,8.19
2023-02-19T14:11:16.360Z,8.19
2023-02-19T14:14:06.553Z,8.00
2023-02-19T14:16:53.363Z,8.03
2023-02-19T14:19:49.754Z,8.00
2023-02-19T14:23:01.335Z,7.95
2023-02-19T14:25:39.066Z,7.95
2023-02-19T14:28:17.721Z,7.88
2023-02-19T14:30:50.602Z,8.03
2023-02-19T14:33:20.251Z,7.92
2023-02-19T14:35:49.821Z,7.96
2023-02-19T14:38:22.238Z,8.06
2023-02-19T14:40:52.998Z,8.34
2023-02-19T14:43:22.850Z,8.29
2023-02-19T14:45:56.027Z,8.08
2023-02-19T14:48:27.241Z,8.07
2023-02-19T14:51:01.262Z,8.10
2023-02-19T14:53:30.891Z,8.09
2023-02-19T14:56:00.617Z,8.10
2023-02-19T14:58:32.450Z,8.19
2023-02-19T15:01:01.308Z,8.20
2023-02-19T15:03:33.313Z,8.25
2023-02-19T15:06:06.130Z,8.32
2023-02-19T15:08:37.955Z,8.36
2023-02-19T15:11:11.065Z,8.24
2023-02-19T15:13:45.380Z,8.18
2023-02-19T15:16:19.740Z,8.26
2023-02-19T15:18:49.240Z,8.27
2023-02-19T15:21:24.463Z,8.25
2023-02-19T15:23:54.865Z,8.07
2023-02-19T15:26:24.951Z,8.08
2023-02-19T15:29:00.775Z,8.04
2023-02-19T15:31:30.128Z,7.96
2023-02-19T15:33:57.606Z,8.04
2023-02-19T15:36:28.789Z,7.97
2023-02-19T15:38:58.985Z,8.07
2023-02-19T15:41:29.527Z,7.97
2023-02-19T15:44:10.940Z,7.96
2023-02-19T15:46:43.388Z,7.83
2023-02-19T15:49:19.081Z,7.93
2023-02-19T15:51:49.921Z,7.93
2023-02-19T15:54:27.122Z,8.02
2023-02-19T15:56:58.913Z,8.07
2023-02-19T15:59:33.013Z,8.02
2023-02-19T16:02:03.768Z,7.90
2023-02-19T16:04:31.587Z,7.81
2023-02-19T16:07:01.049Z,7.81
2023-02-19T16:09:32.145Z,7.71
2023-02-19T16:12:00.846Z,7.79
2023-02-19T16:14:31.930Z,7.71
2023-02-19T16:17:07.186Z,7.76
2023-02-19T16:19:45.625Z,7.74
2023-02-19T16:22:15.435Z,7.71
2023-02-19T16:24:45.979Z,7.78
2023-02-19T16:27:14.891Z,7.66
2023-02-19T16:29:42.368Z,7.55
2023-02-19T16:32:18.003Z,7.51
2023-02-19T16:34:47.761Z,7.46
2023-02-19T16:37:35.076Z,7.48
2023-02-19T16:40:41.775Z,7.41
2023-02-19T16:43:31.648Z,7.62
2023-02-19T16:46:00.599Z,7.34
2023-02-19T16:48:29.553Z,7.44
2023-02-19T16:50:57.332Z,7.52
2023-02-19T16:53:26.124Z,7.49
2023-02-19T16:55:53.678Z,7.62
2023-02-19T16:58:21.531Z,7.41
2023-02-19T17:00:49.169Z,7.45
2023-02-19T17:03:19.789Z,7.43
2023-02-19T17:05:48.891Z,7.46
2023-02-19T17:08:38.517Z,7.51
2023-02-19T17:11:07.813Z,7.52
2023-02-19T17:13:35.316Z,7.41
2023-02-19T17:16:03.328Z,7.45
2023-02-19T17:18:30.871Z,7.39
2023-02-19T17:21:05.969Z,7.33
2023-02-19T17:23:33.426Z,7.31
2023-02-19T17:26:00.873Z,7.23
2023-02-19T17:28:28.376Z,7.30
2023-02-19T17:30:55.831Z,7.18
2023-02-19T17:33:23.288Z,7.29
2023-02-19T17:35:50.754Z,7.48
2023-02-19T17:38:19.542Z,7.16
2023-02-19T17:40:47.000Z,7.20
2023-02-19T17:43:14.609Z,7.16
2023-02-19T17:45:42.332Z,7.30
2023-02-19T17:48:13.171Z,7.25
2023-02-19T17:50:40.840Z,7.29
2023-02-19T17:53:08.550Z,7.11
2023-02-19T17:55:37.563Z,7.17
2023-02-19T17:58:05.049Z,7.25
2023-02-19T18:00:32.858Z,7.14
2023-02-19T18:03:00.310Z,7.21
2023-02-19T18:05:27.821Z,7.18
2023-02-19T18:07:55.599Z,7.14
2023-02-19T18:10:24.303Z,7.07
2023-02-19T18:12:53.065Z,7.09
2023-02-19T18:15:22.664Z,7.20
2023-02-19T18:17:50.154Z,7.19
2023-02-19T18:20:19.715Z,7.12
2023-02-19T18:22:47.207Z,7.19
2023-02-19T18:25:16.191Z,7.21
2023-02-19T18:27:43.885Z,7.19
2023-02-19T18:30:16.620Z,7.20
2023-02-19T18:32:44.312Z,7.18
2023-02-19T18:35:12.384Z,7.21
2023-02-19T18:37:39.897Z,7.28
2023-02-19T18:40:08.609Z,7.20
2023-02-19T18:42:35.971Z,7.17
2023-02-19T18:45:03.488Z,7.13
2023-02-19T18:47:32.312Z,7.12
2023-02-19T18:50:00.166Z,7.16
2023-02-19T18:52:27.998Z,7.18
2023-02-19T18:54:57.182Z,7.09
2023-02-19T18:57:26.070Z,7.09
2023-02-19T18:59:54.243Z,7.00
2023-02-19T19:02:22.057Z,7.12
2023-02-19T19:04:53.949Z,7.02
2023-02-19T19:07:22.752Z,7.09
2023-02-19T19:09:50.404Z,7.00
2023-02-19T19:12:17.983Z,7.06
2023-02-19T19:14:45.726Z,6.92
2023-02-19T19:17:13.495Z,6.95
2023-02-19T19:19:41.495Z,6.97
2023-02-19T19:22:10.562Z,6.95
2023-02-19T19:24:38.033Z,6.97
2023-02-19T19:27:05.772Z,6.97
2023-02-19T19:29:33.401Z,7.04
2023-02-19T19:32:00.861Z,6.94
2023-02-19T19:34:28.344Z,6.89
2023-02-19T19:36:55.803Z,6.89
2023-02-19T19:39:24.676Z,7.06
2023-02-19T19:41:55.530Z,6.90
2023-02-19T19:44:23.358Z,6.84
2023-02-19T19:46:51.356Z,6.89
2023-02-19T19:49:19.430Z,6.77
2023-02-19T19:51:47.221Z,7.00
2023-02-19T19:54:14.992Z,7.01
2023-02-19T19:56:45.653Z,6.84
2023-02-19T19:59:13.515Z,7.00
2023-02-19T20:01:49.043Z,7.11
2023-02-19T20:04:16.823Z,6.97
2023-02-19T20:06:44.343Z,6.91
2023-02-19T20:09:12.440Z,6.94
2023-02-19T20:11:46.666Z,6.95
2023-02-19T20:14:14.590Z,6.92
2023-02-19T20:16:44.650Z,6.82
2023-02-19T20:19:12.292Z,6.79
2023-02-19T20:21:39.743Z,6.78
2023-02-19T20:24:07.727Z,6.90
2023-02-19T20:26:35.223Z,6.81
2023-02-19T20:29:06.162Z,7.13
2023-02-19T20:31:33.813Z,7.00
2023-02-19T20:34:01.614Z,6.90
2023-02-19T20:36:29.311Z,6.83
2023-02-19T20:38:56.809Z,6.85
2023-02-19T20:41:24.284Z,6.71
2023-02-19T20:43:51.731Z,6.94
2023-02-19T20:46:20.628Z,6.70
2023-02-19T20:48:49.449Z,6.68
2023-02-19T20:51:17.919Z,6.82
2023-02-19T20:53:45.364Z,6.63
2023-02-19T20:56:13.287Z,6.53
2023-02-19T20:58:42.907Z,6.46
2023-02-19T21:01:11.584Z,6.58
2023-02-19T21:03:40.517Z,6.74
2023-02-19T21:06:08.246Z,6.80
2023-02-19T21:08:36.347Z,6.67
2023-02-19T21:11:03.792Z,6.75
2023-02-19T21:13:31.268Z,6.86
2023-02-19T21:15:58.792Z,6.61
2023-02-19T21:18:26.294Z,6.50
2023-02-19T21:20:55.131Z,6.55
2023-02-19T21:23:22.601Z,6.65
2023-02-19T21:25:50.066Z,6.67
2023-02-19T21:28:18.715Z,6.53
2023-02-19T21:30:46.871Z,6.51
2023-02-19T21:33:14.434Z,6.54
2023-02-19T21:35:41.883Z,6.56
2023-02-19T21:38:10.928Z,6.56
2023-02-19T21:40:38.488Z,6.90
2023-02-19T21:43:06.085Z,6.67
2023-02-19T21:45:33.559Z,6.76
2023-02-19T21:48:01.012Z,6.64
2023-02-19T21:50:28.691Z,6.72
2023-02-19T21:52:56.202Z,6.65
2023-02-19T21:55:24.989Z,6.86
2023-02-19T21:57:53.590Z,6.75
2023-02-19T22:00:21.905Z,7.01
2023-02-19T22:02:49.444Z,6.90
2023-02-19T22:05:17.575Z,7.02
2023-02-19T22:07:45.081Z,6.81
2023-02-19T22:10:13.403Z,7.04
2023-02-19T22:12:42.212Z,7.04
2023-02-19T22:15:09.696Z,6.93
2023-02-19T22:17:38.532Z,6.75
2023-02-19T22:20:07.495Z,6.70
2023-02-19T22:22:34.913Z,6.88
2023-02-19T22:25:02.412Z,7.04
2023-02-19T22:27:29.892Z,7.01
2023-02-19T22:29:58.813Z,6.75
2023-02-19T22:32:26.451Z,6.76
2023-02-19T22:34:54.032Z,6.67
2023-02-19T22:37:21.478Z,6.78
2023-02-19T22:39:48.970Z,6.76
2023-02-19T22:42:16.490Z,6.66
2023-02-19T22:44:44.470Z,6.70
2023-02-19T22:47:13.305Z,6.65
2023-02-19T22:49:42.085Z,6.75
2023-02-19T22:52:11.423Z,6.72
2023-02-19T22:54:38.933Z,6.70
2023-02-19T22:57:06.629Z,6.71
2023-02-19T22:59:34.260Z,6.63
2023-02-19T23:02:01.779Z,6.74
2023-02-19T23:04:30.584Z,6.74
2023-02-19T23:06:57.899Z,6.73
2023-02-19T23:09:27.187Z,6.76
2023-02-19T23:12:01.399Z,6.78
2023-02-19T23:14:28.972Z,6.65
2023-02-19T23:16:56.484Z,6.62
2023-02-19T23:19:24.044Z,6.75
2023-02-19T23:21:53.470Z,6.59
2023-02-19T23:24:21.382Z,6.64
2023-02-19T23:26:51.288Z,6.70
2023-02-19T23:29:24.912Z,6.63
2023-02-19T23:31:52.922Z,6.61
2023-02-19T23:34:20.842Z,6.60
2023-02-19T23:36:50.164Z,6.70
2023-02-19T23:39:20.753Z,6.60
2023-02-19T23:41:49.158Z,6.56
2023-02-19T23:44:17.035Z,6.64
2023-02-19T23:46:45.234Z,6.54
2023-02-19T23:49:13.420Z,6.64
2023-02-19T23:51:41.132Z,6.57
2023-02-19T23:54:09.258Z,6.59
2023-02-19T23:56:38.123Z,6.67
2023-02-19T23:59:05.653Z,6.67
